Time;durP1;ratioP1;P1;durP2;ratioP2;P2;SDS_P1;SDS_P2;PMS_P1;PMS_P2;Temp;Humidity;BMP_temperature;BMP_pressure;BME280_temperature;BME280_humidity;BME280_pressure;Samples;Min_cycle;Max_cycle;Signal;HPM_P1;HPM_P2
2021/06/21 00:01:48;;;;;;;6.23;2.10;;;32.60;62.40;;;;;;5082525;28;20449;-27
2021/06/21 00:04:19;;;;;;;2.70;2.33;;;32.60;61.20;;;;;;5072712;28;20454;-24
2021/06/21 00:06:50;;;;;;;2.60;2.40;;;32.50;61.20;;;;;;5083041;28;20490;-28
2021/06/21 00:09:22;;;;;;;2.80;2.60;;;32.30;62.10;;;;;;5081494;28;21074;-28
2021/06/21 00:11:53;;;;;;;2.50;2.30;;;32.30;63.10;;;;;;5076544;28;20601;-26
2021/06/21 00:14:23;;;;;;;2.57;2.47;;;32.40;61.90;;;;;;5072573;28;20458;-27
2021/06/21 00:16:56;;;;;;;3.57;2.67;;;32.30;63.90;;;;;;5073907;28;20509;-26
2021/06/21 00:19:27;;;;;;;2.97;2.57;;;32.40;62.00;;;;;;5077677;28;20479;-32
2021/06/21 00:21:59;;;;;;;2.30;2.10;;;32.40;62.50;;;;;;5073255;28;20521;-31
2021/06/21 00:24:30;;;;;;;2.83;2.40;;;32.30;62.40;;;;;;5070501;28;20573;-24
2021/06/21 00:27:01;;;;;;;2.10;2.00;;;32.30;63.00;;;;;;5073083;28;20941;-25
2021/06/21 00:29:32;;;;;;;2.73;2.60;;;32.20;62.60;;;;;;5076479;28;20528;-25
2021/06/21 00:32:05;;;;;;;3.17;2.90;;;32.10;64.00;;;;;;5072034;28;20481;-27
2021/06/21 00:34:36;;;;;;;3.80;3.50;;;32.10;63.10;;;;;;5070849;28;20458;-23
2021/06/21 00:37:07;;;;;;;2.40;2.30;;;32.00;64.10;;;;;;5081695;28;20483;-25
2021/06/21 00:39:38;;;;;;;2.60;2.40;;;31.90;64.70;;;;;;5081647;28;20448;-24
2021/06/21 00:42:10;;;;;;;3.27;2.93;;;31.70;65.70;;;;;;5083171;28;20462;-25
2021/06/21 00:44:41;;;;;;;2.70;2.50;;;31.70;64.60;;;;;;5082586;28;20470;-28
2021/06/21 00:47:14;;;;;;;2.80;2.60;;;31.60;65.60;;;;;;5082862;28;20532;-26
2021/06/21 00:49:45;;;;;;;2.70;2.50;;;31.60;65.00;;;;;;5081410;28;20449;-29
2021/06/21 00:52:18;;;;;;;2.90;2.70;;;31.70;66.00;;;;;;5082801;28;20495;-25
2021/06/21 00:54:59;;;;;;;3.17;2.97;;;31.50;66.90;;;;;;5081962;28;20460;-25
2021/06/21 00:57:31;;;;;;;3.10;2.90;;;31.60;65.50;;;;;;5083428;28;20497;-24
2021/06/21 01:00:05;;;;;;;2.77;2.57;;;31.40;65.50;;;;;;5082968;28;20447;-24
2021/06/21 01:02:38;;;;;;;3.37;3.07;;;31.30;67.20;;;;;;5082957;28;20508;-26
2021/06/21 01:05:11;;;;;;;2.50;2.40;;;31.20;67.70;;;;;;5082454;28;20953;-25
2021/06/21 01:07:42;;;;;;;3.30;3.10;;;31.10;67.90;;;;;;5083147;28;20449;-29
2021/06/21 01:10:15;;;;;;;4.60;3.00;;;31.20;67.20;;;;;;5081740;28;20526;-28
2021/06/21 01:13:23;;;;;;;2.97;2.77;;;31.10;67.70;;;;;;5082740;28;20457;-26
2021/06/21 01:16:03;;;;;;;2.80;2.60;;;31.10;67.40;;;;;;5078944;28;20453;-26
2021/06/21 01:18:36;;;;;;;3.73;3.43;;;31.10;67.00;;;;;;5083125;28;20516;-28
2021/06/21 01:21:44;;;;;;;3.33;3.13;;;31.00;67.80;;;;;;5082597;28;20518;-27
2021/06/21 01:25:05;;;;;;;3.53;3.23;;;31.00;68.40;;;;;;5081579;28;20449;-24
2021/06/21 01:28:00;;;;;;;6.20;5.70;;;31.00;68.60;;;;;;5082826;28;20477;-26
2021/06/21 01:30:43;;;;;;;18.93;17.53;;;31.00;67.50;;;;;;5081536;28;20492;-27
2021/06/21 01:33:16;;;;;;;6.50;5.30;;;30.80;69.40;;;;;;5082672;28;20499;-24
2021/06/21 01:35:54;;;;;;;4.20;3.90;;;30.80;68.00;;;;;;5067511;28;20454;-26
2021/06/21 01:38:30;;;;;;;4.90;4.40;;;30.80;69.20;;;;;;5082031;28;20484;-29
2021/06/21 01:41:05;;;;;;;3.10;2.90;;;30.70;68.30;;;;;;5080318;28;20853;-23
2021/06/21 01:43:41;;;;;;;3.83;3.53;;;30.70;68.10;;;;;;5081820;28;20451;-29
2021/06/21 01:46:13;;;;;;;3.80;3.40;;;30.70;68.50;;;;;;5081923;28;20547;-25
2021/06/21 01:49:07;;;;;;;2.70;2.50;;;30.70;68.90;;;;;;5069395;28;20486;-25
2021/06/21 01:51:39;;;;;;;2.97;2.77;;;30.80;69.40;;;;;;5082786;28;20425;-25
2021/06/21 01:54:11;;;;;;;3.00;2.80;;;30.80;67.50;;;;;;5081252;28;20465;-29
2021/06/21 01:56:46;;;;;;;3.27;3.07;;;30.90;67.20;;;;;;5081852;28;20531;-25
2021/06/21 01:59:18;;;;;;;4.20;3.90;;;30.80;69.00;;;;;;5073342;28;20464;-28
2021/06/21 02:01:49;;;;;;;3.37;3.07;;;30.60;69.50;;;;;;5077302;28;20479;-26
2021/06/21 02:04:23;;;;;;;3.43;3.23;;;30.40;69.70;;;;;;5081621;28;20866;-26
2021/06/21 02:06:56;;;;;;;4.13;3.83;;;30.30;70.70;;;;;;5078385;28;20446;-29
2021/06/21 02:09:27;;;;;;;3.10;2.80;;;30.20;71.40;;;;;;5072414;28;20448;-26
2021/06/21 02:11:59;;;;;;;3.00;2.80;;;30.20;72.10;;;;;;5085129;28;20450;-22
2021/06/21 02:14:31;;;;;;;3.37;3.07;;;30.20;70.60;;;;;;5081485;28;20916;-22
2021/06/21 02:17:03;;;;;;;4.53;2.60;;;30.30;70.40;;;;;;5082041;28;20456;-24
2021/06/21 02:19:37;;;;;;;2.90;2.70;;;30.20;70.30;;;;;;5081667;28;20460;-23
2021/06/21 02:22:08;;;;;;;4.07;3.77;;;30.10;70.30;;;;;;5079824;28;20464;-27
2021/06/21 02:24:40;;;;;;;3.63;3.20;;;30.10;70.70;;;;;;5081256;28;20508;-24
2021/06/21 02:27:12;;;;;;;3.37;3.00;;;30.00;71.60;;;;;;5082169;28;20483;-26
2021/06/21 02:29:43;;;;;;;5.50;5.10;;;29.80;72.90;;;;;;5081404;28;20796;-26
2021/06/21 02:32:14;;;;;;;3.73;3.43;;;29.70;71.50;;;;;;5082151;28;20477;-27
2021/06/21 02:34:47;;;;;;;4.17;3.83;;;29.70;72.40;;;;;;5077008;28;20503;-27
2021/06/21 02:37:18;;;;;;;4.57;4.27;;;29.60;72.30;;;;;;5082002;28;20471;-23
2021/06/21 02:39:49;;;;;;;3.67;3.37;;;29.50;72.30;;;;;;5080875;28;20501;-26
2021/06/21 02:42:20;;;;;;;5.77;5.27;;;29.40;72.80;;;;;;5078823;28;20554;-24
2021/06/21 02:44:51;;;;;;;3.20;2.93;;;29.40;72.70;;;;;;5080510;28;20506;-23
2021/06/21 02:47:23;;;;;;;3.47;3.10;;;29.30;73.10;;;;;;5081666;28;20534;-25
2021/06/21 02:49:56;;;;;;;3.10;2.90;;;29.10;73.50;;;;;;5081418;28;20444;-25
2021/06/21 02:52:38;;;;;;;3.00;2.80;;;29.00;74.10;;;;;;5077950;28;20458;-27
2021/06/21 02:55:14;;;;;;;2.70;2.50;;;29.10;73.60;;;;;;5069295;28;21118;-26
2021/06/21 02:57:54;;;;;;;3.03;2.70;;;28.90;73.60;;;;;;5078622;28;20497;-24
2021/06/21 03:00:26;;;;;;;3.73;2.80;;;28.90;73.40;;;;;;5085106;28;20488;-24
2021/06/21 03:02:58;;;;;;;3.00;2.80;;;28.80;74.80;;;;;;5085560;28;20485;-24
2021/06/21 03:05:50;;;;;;;2.90;2.67;;;28.70;74.70;;;;;;5085187;28;20457;-27
2021/06/21 03:08:22;;;;;;;3.67;2.47;;;28.60;74.60;;;;;;5085080;28;20469;-27
2021/06/21 03:10:54;;;;;;;2.80;2.60;;;28.60;75.50;;;;;;5082725;28;20464;-25
2021/06/21 03:13:27;;;;;;;4.90;3.07;;;28.50;75.30;;;;;;5086227;28;20482;-24
2021/06/21 03:16:00;;;;;;;2.90;2.70;;;28.40;75.20;;;;;;5084612;28;20484;-26
2021/06/21 03:18:32;;;;;;;3.10;2.43;;;28.30;76.70;;;;;;5084432;28;20590;-23
2021/06/21 03:21:05;;;;;;;3.73;2.80;;;28.30;76.20;;;;;;5083984;28;20488;-27
2021/06/21 03:23:36;;;;;;;2.87;2.57;;;28.30;76.90;;;;;;5084579;28;20451;-25
2021/06/21 03:26:07;;;;;;;3.07;2.73;;;28.20;76.90;;;;;;5083997;28;20483;-24
2021/06/21 03:28:39;;;;;;;3.27;3.07;;;28.20;77.20;;;;;;5085143;28;20486;-23
2021/06/21 03:31:11;;;;;;;4.00;2.50;;;28.10;77.80;;;;;;5084637;28;20488;-26
2021/06/21 03:33:42;;;;;;;2.90;2.63;;;28.10;77.50;;;;;;5082537;28;20457;-25
2021/06/21 03:36:15;;;;;;;3.30;3.03;;;28.00;78.60;;;;;;5084630;28;20453;-23
2021/06/21 03:38:46;;;;;;;2.70;2.50;;;27.90;78.50;;;;;;5084381;28;20514;-23
2021/06/21 03:41:17;;;;;;;2.53;2.23;;;27.80;79.40;;;;;;5083513;28;20445;-26
2021/06/21 03:43:48;;;;;;;2.63;2.43;;;27.70;79.70;;;;;;5084355;28;20466;-23
2021/06/21 03:46:19;;;;;;;2.80;2.60;;;27.70;79.70;;;;;;5084362;28;20446;-23
2021/06/21 03:49:07;;;;;;;2.83;2.53;;;27.50;80.50;;;;;;5082507;28;20547;-24
2021/06/21 03:51:39;;;;;;;2.83;2.60;;;27.40;80.50;;;;;;5084332;28;20451;-24
2021/06/21 03:54:10;;;;;;;2.93;2.73;;;27.40;80.90;;;;;;5072695;28;20458;-24
2021/06/21 03:56:41;;;;;;;3.10;2.60;;;27.30;81.10;;;;;;5084427;28;20433;-23
2021/06/21 03:59:12;;;;;;;4.20;2.90;;;27.10;82.00;;;;;;5084022;28;20539;-26
2021/06/21 04:01:43;;;;;;;4.23;2.70;;;27.00;82.40;;;;;;5083981;28;20517;-24
2021/06/21 04:04:14;;;;;;;3.00;2.70;;;27.00;82.20;;;;;;5082285;28;20531;-24
2021/06/21 04:06:47;;;;;;;2.60;2.40;;;26.90;83.30;;;;;;5084173;28;20468;-25
2021/06/21 04:09:18;;;;;;;2.23;2.13;;;26.90;83.00;;;;;;5081406;28;20460;-23
2021/06/21 04:11:50;;;;;;;3.47;3.17;;;26.80;83.30;;;;;;5083627;28;20479;-25
2021/06/21 04:14:21;;;;;;;3.00;2.70;;;26.70;83.60;;;;;;5083728;28;20520;-24
2021/06/21 04:16:52;;;;;;;6.17;4.90;;;26.60;84.40;;;;;;5084359;28;20452;-27
2021/06/21 04:19:23;;;;;;;4.87;3.50;;;26.60;85.10;;;;;;5083295;28;20563;-29
2021/06/21 04:21:55;;;;;;;3.13;2.90;;;26.50;85.00;;;;;;5083892;28;20456;-22
2021/06/21 04:24:26;;;;;;;4.23;3.17;;;26.40;85.40;;;;;;5082856;28;20840;-24
2021/06/21 04:26:57;;;;;;;2.80;2.60;;;26.30;85.30;;;;;;5083588;28;20451;-24
2021/06/21 04:29:28;;;;;;;5.77;5.37;;;26.30;85.90;;;;;;5083423;28;20524;-23
2021/06/21 04:31:59;;;;;;;3.47;3.17;;;26.20;86.40;;;;;;5084151;28;20447;-24
2021/06/21 04:34:30;;;;;;;3.20;2.93;;;26.20;85.80;;;;;;5083129;28;20478;-26
2021/06/21 04:37:03;;;;;;;2.83;2.63;;;26.10;86.50;;;;;;5083091;28;20763;-28
2021/06/21 04:39:34;;;;;;;4.87;2.70;;;26.00;87.40;;;;;;5065678;28;20518;-29
2021/06/21 04:42:06;;;;;;;2.60;2.40;;;25.90;86.90;;;;;;5082673;28;20464;-25
2021/06/21 04:44:37;;;;;;;3.80;2.90;;;25.90;87.30;;;;;;5079739;28;20471;-25
2021/06/21 04:47:09;;;;;;;2.90;2.57;;;25.80;87.10;;;;;;5083014;28;20467;-24
2021/06/21 04:49:40;;;;;;;3.13;2.80;;;25.80;87.70;;;;;;5080626;28;20466;-27
2021/06/21 04:52:13;;;;;;;2.60;2.50;;;25.70;87.40;;;;;;5082776;28;20422;-30
2021/06/21 04:54:44;;;;;;;2.57;2.37;;;25.70;87.60;;;;;;5080887;28;20447;-22
2021/06/21 04:57:15;;;;;;;3.13;2.93;;;25.60;87.70;;;;;;5082158;28;20534;-25
2021/06/21 04:59:46;;;;;;;2.77;2.43;;;25.60;88.40;;;;;;5080474;28;20478;-27
2021/06/21 05:02:18;;;;;;;2.30;2.20;;;25.50;88.60;;;;;;5082067;28;20516;-24
2021/06/21 05:04:49;;;;;;;3.80;2.47;;;25.40;89.10;;;;;;5080318;28;20476;-22
2021/06/21 05:07:22;;;;;;;2.67;2.40;;;25.40;89.40;;;;;;5082603;28;20455;-23
2021/06/21 05:09:53;;;;;;;2.80;2.60;;;25.40;89.40;;;;;;5081451;28;20546;-23
2021/06/21 05:12:24;;;;;;;2.70;2.50;;;25.30;89.10;;;;;;5086476;28;20512;-25
2021/06/21 05:14:55;;;;;;;5.30;2.43;;;25.30;89.30;;;;;;5082701;28;20800;-24
2021/06/21 05:17:26;;;;;;;2.67;2.47;;;25.30;89.70;;;;;;5082068;28;20471;-26
2021/06/21 05:19:57;;;;;;;2.87;2.67;;;25.20;89.50;;;;;;5082176;28;20506;-22
2021/06/21 05:22:30;;;;;;;2.33;2.23;;;25.10;90.00;;;;;;5082962;28;20467;-27
2021/06/21 05:25:01;;;;;;;2.30;2.10;;;25.10;90.10;;;;;;5080325;28;20451;-23
2021/06/21 05:27:32;;;;;;;3.00;2.50;;;25.00;90.20;;;;;;5081670;28;20763;-22
2021/06/21 05:30:03;;;;;;;2.43;2.23;;;24.90;90.40;;;;;;5080145;28;20459;-27
2021/06/21 05:32:35;;;;;;;2.50;2.17;;;24.90;90.30;;;;;;5079923;28;20493;-25
2021/06/21 05:35:07;;;;;;;2.40;2.20;;;24.90;90.20;;;;;;5079839;28;20440;-23
2021/06/21 05:37:39;;;;;;;2.33;2.23;;;24.80;90.40;;;;;;5082580;28;20471;-27
2021/06/21 05:40:12;;;;;;;2.20;2.10;;;24.80;90.70;;;;;;5081305;28;21012;-23
2021/06/21 05:42:43;;;;;;;2.80;2.60;;;24.70;90.80;;;;;;5070133;28;20762;-23
2021/06/21 05:45:17;;;;;;;2.57;2.43;;;24.70;90.50;;;;;;5079147;28;20475;-25
2021/06/21 05:47:49;;;;;;;4.20;2.57;;;24.70;90.80;;;;;;5064446;28;20989;-24
2021/06/21 05:50:20;;;;;;;2.27;2.07;;;24.60;90.90;;;;;;5082223;28;20458;-24
2021/06/21 05:52:53;;;;;;;2.90;2.60;;;24.60;91.40;;;;;;5082292;28;20505;-23
2021/06/21 05:55:24;;;;;;;2.13;1.93;;;24.50;91.30;;;;;;5080650;28;20860;-24
2021/06/21 05:57:56;;;;;;;3.23;2.07;;;24.50;91.60;;;;;;5082835;28;20447;-22
2021/06/21 06:00:27;;;;;;;2.67;2.37;;;24.40;91.30;;;;;;5081758;28;20479;-23
2021/06/21 06:02:58;;;;;;;2.83;2.40;;;24.40;91.80;;;;;;5082411;28;20479;-26
2021/06/21 06:05:30;;;;;;;2.80;2.60;;;24.30;92.10;;;;;;5081941;28;20776;-24
2021/06/21 06:08:03;;;;;;;2.30;2.20;;;24.30;91.80;;;;;;5082239;28;20452;-24
2021/06/21 06:10:33;;;;;;;2.87;2.67;;;24.20;92.20;;;;;;5081343;28;20458;-23
2021/06/21 06:13:04;;;;;;;2.60;2.40;;;24.20;92.00;;;;;;5082710;28;20447;-24
2021/06/21 06:15:35;;;;;;;3.33;2.20;;;24.20;92.10;;;;;;5081303;28;20483;-24
2021/06/21 06:18:07;;;;;;;2.90;2.60;;;24.10;92.60;;;;;;5081807;28;20452;-22
2021/06/21 06:20:38;;;;;;;2.60;2.40;;;24.00;92.50;;;;;;5081893;28;20522;-22
2021/06/21 06:23:11;;;;;;;4.33;2.80;;;24.00;92.70;;;;;;5081870;28;20456;-22
2021/06/21 06:25:42;;;;;;;2.17;1.90;;;24.00;93.00;;;;;;5080183;28;20440;-24
2021/06/21 06:28:13;;;;;;;2.37;2.27;;;23.80;93.30;;;;;;5083610;28;20446;-26
2021/06/21 06:30:44;;;;;;;2.53;2.33;;;23.70;93.50;;;;;;5085745;28;20983;-22
2021/06/21 06:33:15;;;;;;;2.50;2.40;;;23.70;93.60;;;;;;5086149;28;20471;-21
2021/06/21 06:35:46;;;;;;;2.77;2.57;;;23.60;93.90;;;;;;5085529;28;20577;-22
2021/06/21 06:38:18;;;;;;;2.67;2.47;;;23.50;94.10;;;;;;5085620;28;20462;-22
2021/06/21 06:40:49;;;;;;;2.57;2.47;;;23.50;94.20;;;;;;5084618;28;20570;-26
2021/06/21 06:43:20;;;;;;;2.43;2.17;;;23.40;94.70;;;;;;5086304;28;20470;-25
2021/06/21 06:45:51;;;;;;;2.50;2.30;;;23.30;95.30;;;;;;5085502;28;20479;-23
2021/06/21 06:48:22;;;;;;;3.20;2.90;;;23.30;95.10;;;;;;5084688;28;20483;-22
2021/06/21 06:50:54;;;;;;;2.40;2.30;;;23.20;95.20;;;;;;5085344;28;20458;-24
2021/06/21 06:53:34;;;;;;;2.77;2.57;;;23.10;95.30;;;;;;5085522;28;20478;-28
2021/06/21 06:58:53;;;;;;;2.40;2.30;;;23.00;96.20;;;;;;5083643;28;20475;-23
2021/06/21 07:01:24;;;;;;;2.60;2.40;;;23.00;96.40;;;;;;5085058;28;20500;-25
2021/06/21 07:03:55;;;;;;;2.90;2.60;;;22.90;96.10;;;;;;5085296;28;20475;-21
2021/06/21 07:06:26;;;;;;;3.17;1.90;;;22.90;96.70;;;;;;5084953;28;20478;-25
2021/06/21 07:09:00;;;;;;;2.40;2.30;;;22.80;96.80;;;;;;5085617;28;20813;-23
2021/06/21 07:11:35;;;;;;;2.10;2.00;;;22.80;96.80;;;;;;5085171;28;20455;-27
2021/06/21 07:14:06;;;;;;;2.87;2.40;;;22.70;97.00;;;;;;5085521;28;20439;-24
2021/06/21 07:16:38;;;;;;;3.90;2.50;;;22.60;96.90;;;;;;5085582;28;20426;-23
2021/06/21 07:19:09;;;;;;;2.40;2.20;;;22.60;96.80;;;;;;5084615;28;20458;-23
2021/06/21 07:21:40;;;;;;;2.80;2.60;;;22.60;97.10;;;;;;5085467;28;20490;-25
2021/06/21 07:24:13;;;;;;;2.33;2.23;;;22.60;97.00;;;;;;5083656;28;20455;-25
2021/06/21 07:26:45;;;;;;;2.47;2.27;;;22.50;97.60;;;;;;5084260;28;20968;-23
2021/06/21 07:29:16;;;;;;;2.47;2.27;;;22.40;98.00;;;;;;5085146;28;20421;-24
2021/06/21 07:31:48;;;;;;;2.93;2.50;;;22.50;97.30;;;;;;5085715;28;20475;-23
2021/06/21 07:34:19;;;;;;;2.80;2.60;;;22.50;97.70;;;;;;5084572;28;20526;-26
2021/06/21 07:36:50;;;;;;;2.67;2.47;;;22.50;97.80;;;;;;5085073;28;20442;-27
2021/06/21 07:39:23;;;;;;;2.93;2.00;;;22.40;97.60;;;;;;5082474;28;20515;-24
2021/06/21 07:41:54;;;;;;;2.90;2.57;;;22.40;97.50;;;;;;5085061;28;20560;-23
2021/06/21 07:44:25;;;;;;;4.40;2.70;;;22.40;97.70;;;;;;5085281;28;20418;-22
2021/06/21 07:46:56;;;;;;;2.77;2.50;;;22.30;98.00;;;;;;5084700;28;20422;-23
2021/06/21 07:49:27;;;;;;;2.90;2.60;;;22.20;97.70;;;;;;5084332;28;20449;-22
2021/06/21 07:52:36;;;;;;;2.83;2.63;;;22.20;98.10;;;;;;5084908;28;20481;-22
2021/06/21 07:55:10;;;;;;;2.93;2.73;;;22.20;98.10;;;;;;5072575;28;20497;-22
2021/06/21 07:57:41;;;;;;;3.00;2.80;;;22.10;98.30;;;;;;5082118;28;20451;-25
2021/06/21 08:00:13;;;;;;;2.93;2.73;;;22.10;98.20;;;;;;5084013;28;20458;-22
2021/06/21 08:02:44;;;;;;;2.37;2.17;;;22.10;98.40;;;;;;5076451;28;20429;-24
2021/06/21 08:05:15;;;;;;;2.67;2.47;;;22.10;98.50;;;;;;5084186;28;20454;-23
2021/06/21 08:07:47;;;;;;;2.90;2.60;;;22.00;99.30;;;;;;5084641;28;20451;-23
2021/06/21 08:10:20;;;;;;;2.80;2.60;;;22.00;99.10;;;;;;5083352;28;20454;-24
2021/06/21 08:12:54;;;;;;;3.90;2.60;;;21.90;99.80;;;;;;5081513;28;20486;-22
2021/06/21 08:15:25;;;;;;;2.60;2.40;;;21.90;99.60;;;;;;5084343;28;20825;-23
2021/06/21 08:17:56;;;;;;;3.03;2.40;;;21.80;99.40;;;;;;5084098;28;20471;-23
2021/06/21 08:20:27;;;;;;;3.10;2.20;;;21.80;99.90;;;;;;5083258;28;20483;-22
2021/06/21 08:22:58;;;;;;;2.10;2.00;;;21.70;99.80;;;;;;5084469;28;20452;-24
2021/06/21 08:25:31;;;;;;;2.60;2.40;;;21.70;99.90;;;;;;5082669;28;20913;-23
2021/06/21 08:28:02;;;;;;;2.37;2.17;;;21.60;99.90;;;;;;5083244;28;20476;-22
2021/06/21 08:30:34;;;;;;;2.50;2.40;;;21.70;99.90;;;;;;5083386;28;20445;-23
2021/06/21 08:33:05;;;;;;;2.50;2.40;;;21.60;99.90;;;;;;5084439;28;20473;-23
2021/06/21 08:35:37;;;;;;;2.50;2.30;;;21.70;99.90;;;;;;5083435;28;20427;-23
2021/06/21 08:38:08;;;;;;;2.77;2.57;;;21.70;99.90;;;;;;5084037;28;20425;-27
2021/06/21 08:40:41;;;;;;;2.63;2.43;;;21.60;99.90;;;;;;5081959;28;20457;-22
2021/06/21 08:43:14;;;;;;;2.67;2.47;;;21.60;99.90;;;;;;5083379;28;20525;-22
2021/06/21 08:45:45;;;;;;;2.93;2.70;;;21.50;99.90;;;;;;5083549;28;20479;-22
2021/06/21 08:48:17;;;;;;;2.63;2.40;;;21.50;99.90;;;;;;5083831;28;20549;-21
2021/06/21 08:50:49;;;;;;;2.57;2.43;;;21.40;99.90;;;;;;5082690;28;20437;-23
2021/06/21 08:53:20;;;;;;;3.13;2.93;;;21.40;99.90;;;;;;5083462;28;20422;-28
2021/06/21 08:55:54;;;;;;;2.40;2.20;;;21.30;99.90;;;;;;5081858;28;20476;-23
2021/06/21 08:58:25;;;;;;;3.03;2.83;;;21.40;99.90;;;;;;5082327;28;20438;-22
2021/06/21 09:00:56;;;;;;;2.80;2.60;;;21.30;99.90;;;;;;5082056;28;20817;-22
2021/06/21 09:03:27;;;;;;;2.60;2.40;;;21.20;99.90;;;;;;5074168;28;20493;-22
2021/06/21 09:05:58;;;;;;;2.43;2.30;;;21.20;99.90;;;;;;5083266;28;20479;-22
2021/06/21 09:08:29;;;;;;;3.40;3.10;;;21.10;99.90;;;;;;5082758;28;20430;-22
2021/06/21 09:11:01;;;;;;;2.80;2.60;;;21.10;99.90;;;;;;5082140;28;20508;-23
2021/06/21 09:13:34;;;;;;;3.00;2.80;;;21.00;99.90;;;;;;5089401;28;20430;-23
2021/06/21 09:16:06;;;;;;;3.07;2.87;;;21.00;99.90;;;;;;5082747;28;20434;-25
2021/06/21 09:18:39;;;;;;;3.00;2.80;;;20.90;99.90;;;;;;5082520;28;20509;-22
2021/06/21 09:21:25;;;;;;;3.07;2.87;;;20.90;99.90;;;;;;5082379;28;20461;-22
2021/06/21 09:24:18;;;;;;;2.93;2.73;;;20.80;99.90;;;;;;5081703;28;20422;-22
2021/06/21 09:26:52;;;;;;;2.93;2.73;;;20.70;99.90;;;;;;5082187;28;20418;-24
2021/06/21 09:29:36;;;;;;;4.10;3.47;;;20.70;99.90;;;;;;5077891;28;20474;-23
2021/06/21 09:32:44;;;;;;;2.90;2.70;;;20.70;99.90;;;;;;5077220;28;20515;-22
2021/06/21 09:35:43;;;;;;;3.30;2.73;;;20.60;99.90;;;;;;5082863;28;20588;-23
2021/06/21 09:38:19;;;;;;;2.70;2.50;;;20.50;99.90;;;;;;5082582;28;20455;-22
2021/06/21 09:40:52;;;;;;;4.80;2.30;;;20.50;99.90;;;;;;5081319;28;20479;-24
2021/06/21 09:43:28;;;;;;;3.00;2.80;;;20.40;99.90;;;;;;5082765;28;20503;-22
2021/06/21 09:46:13;;;;;;;3.00;2.80;;;20.40;99.90;;;;;;5082789;28;20443;-23
2021/06/21 09:48:46;;;;;;;2.80;2.60;;;20.30;99.90;;;;;;5082340;28;20457;-26
2021/06/21 09:51:25;;;;;;;3.27;3.00;;;20.30;99.90;;;;;;5074009;28;20430;-24
2021/06/21 09:53:59;;;;;;;3.23;2.80;;;20.30;99.90;;;;;;5082441;28;20430;-21
2021/06/21 09:56:41;;;;;;;3.57;3.27;;;20.20;99.90;;;;;;5082776;28;20482;-23
2021/06/21 09:59:23;;;;;;;3.40;3.10;;;20.20;99.90;;;;;;5081668;28;20475;-23
2021/06/21 10:02:09;;;;;;;3.13;2.93;;;20.20;99.90;;;;;;5081360;28;20537;-23
2021/06/21 10:04:42;;;;;;;3.40;3.10;;;20.20;99.90;;;;;;5082422;28;20737;-24
2021/06/21 10:07:28;;;;;;;4.03;2.87;;;20.10;99.90;;;;;;5082741;28;20852;-25
2021/06/21 10:10:01;;;;;;;3.80;3.30;;;20.10;99.90;;;;;;5080539;28;20477;-24
2021/06/21 10:12:32;;;;;;;3.17;2.97;;;20.00;99.90;;;;;;5090265;28;20496;-26
2021/06/21 10:15:06;;;;;;;3.60;3.30;;;20.00;99.90;;;;;;5084141;28;20448;-21
2021/06/21 10:17:37;;;;;;;3.13;3.00;;;20.00;99.90;;;;;;5082478;28;20483;-25
2021/06/21 10:20:10;;;;;;;3.13;2.93;;;19.90;99.90;;;;;;5082201;28;20439;-28
2021/06/21 10:22:42;;;;;;;3.73;3.47;;;19.80;99.90;;;;;;5067419;28;20457;-23
2021/06/21 10:25:14;;;;;;;4.13;2.50;;;19.70;99.90;;;;;;5081188;28;20461;-22
2021/06/21 10:27:46;;;;;;;3.67;3.37;;;19.70;99.90;;;;;;5082950;28;20505;-23
2021/06/21 10:30:22;;;;;;;3.00;2.80;;;19.70;99.90;;;;;;5081604;28;20426;-28
2021/06/21 10:32:55;;;;;;;3.00;2.80;;;19.70;99.90;;;;;;5067185;28;20451;-25
2021/06/21 10:35:30;;;;;;;3.93;3.10;;;19.60;99.90;;;;;;5081846;28;20436;-25
2021/06/21 10:38:06;;;;;;;3.00;2.80;;;19.60;99.90;;;;;;5077175;28;20463;-22
2021/06/21 10:40:59;;;;;;;3.80;3.50;;;19.60;99.90;;;;;;5072323;28;20452;-24
2021/06/21 10:43:50;;;;;;;4.80;3.17;;;19.50;99.90;;;;;;5080812;28;20487;-24
2021/06/21 10:46:30;;;;;;;2.90;2.70;;;19.50;99.90;;;;;;5082213;28;20463;-23
2021/06/21 10:49:39;;;;;;;3.70;3.40;;;19.50;99.90;;;;;;5081535;28;20816;-24
2021/06/21 10:52:36;;;;;;;3.00;2.80;;;19.50;99.90;;;;;;5082411;28;20486;-22
2021/06/21 10:55:37;;;;;;;3.60;3.30;;;19.40;99.90;;;;;;5079336;28;20483;-21
2021/06/21 10:58:10;;;;;;;4.00;3.70;;;19.40;99.90;;;;;;5074968;28;20476;-22
2021/06/21 11:00:43;;;;;;;3.60;3.30;;;19.30;99.90;;;;;;5081532;28;20508;-21
2021/06/21 11:03:38;;;;;;;3.33;3.00;;;19.30;99.90;;;;;;5066579;28;20484;-21
2021/06/21 11:06:33;;;;;;;3.20;3.00;;;19.30;99.90;;;;;;5082012;28;20433;-23
2021/06/21 11:09:05;;;;;;;3.80;3.50;;;19.30;99.90;;;;;;5080345;28;20451;-24
2021/06/21 11:11:48;;;;;;;3.47;3.17;;;19.30;99.90;;;;;;5073326;28;20494;-22
2021/06/21 11:14:25;;;;;;;3.50;3.30;;;19.20;99.90;;;;;;5076489;28;20443;-22
2021/06/21 11:17:23;;;;;;;4.83;3.53;;;19.20;99.90;;;;;;5085516;28;20443;-22
2021/06/21 11:19:55;;;;;;;3.60;3.30;;;19.20;99.90;;;;;;5084461;28;20481;-23
2021/06/21 11:22:43;;;;;;;3.50;3.30;;;19.10;99.90;;;;;;5085401;28;20473;-25
2021/06/21 11:25:24;;;;;;;4.37;3.10;;;19.00;99.90;;;;;;5083197;28;20509;-23
2021/06/21 11:27:56;;;;;;;3.40;3.20;;;19.00;99.90;;;;;;5084869;28;20444;-21
2021/06/21 11:30:40;;;;;;;3.87;3.57;;;19.00;99.90;;;;;;5083503;28;20459;-23
2021/06/21 11:33:14;;;;;;;3.40;3.20;;;19.00;99.90;;;;;;5084389;28;20764;-22
2021/06/21 11:35:56;;;;;;;3.83;3.53;;;19.00;99.90;;;;;;5085077;28;20457;-21
2021/06/21 11:38:32;;;;;;;5.03;3.00;;;18.90;99.90;;;;;;5084527;28;20444;-22
2021/06/21 11:41:32;;;;;;;3.90;3.60;;;18.80;99.90;;;;;;5083210;28;20447;-23
2021/06/21 11:44:04;;;;;;;3.50;3.20;;;18.80;99.90;;;;;;5073694;28;20469;-25
2021/06/21 11:46:47;;;;;;;3.43;3.23;;;18.80;99.90;;;;;;5085104;28;20486;-22
2021/06/21 11:49:20;;;;;;;3.50;3.20;;;18.80;99.90;;;;;;5083893;28;20869;-22
2021/06/21 11:51:59;;;;;;;3.43;3.13;;;18.80;99.90;;;;;;5069673;28;20759;-22
2021/06/21 11:54:31;;;;;;;3.40;3.10;;;18.80;99.90;;;;;;5083510;28;20567;-24
2021/06/21 11:57:02;;;;;;;3.63;3.33;;;18.80;99.90;;;;;;5085098;28;20468;-23
2021/06/21 11:59:36;;;;;;;4.20;3.50;;;18.80;99.90;;;;;;5084112;28;20522;-22
2021/06/21 12:02:10;;;;;;;4.13;3.80;;;18.80;99.90;;;;;;5080182;28;20451;-22
2021/06/21 12:04:42;;;;;;;4.23;3.40;;;18.80;99.90;;;;;;5080959;28;20538;-26
2021/06/21 12:07:30;;;;;;;5.30;3.17;;;18.70;99.90;;;;;;5084682;28;20447;-23
2021/06/21 12:10:05;;;;;;;4.53;3.47;;;18.70;99.90;;;;;;5082681;28;20430;-22
2021/06/21 12:12:37;;;;;;;3.60;3.30;;;18.70;99.90;;;;;;5084770;28;20486;-21
2021/06/21 12:15:11;;;;;;;4.17;3.80;;;18.70;99.90;;;;;;5084175;28;20489;-24
2021/06/21 12:17:43;;;;;;;7.17;4.37;;;18.70;99.90;;;;;;5084143;28;20550;-22
2021/06/21 12:20:17;;;;;;;4.00;3.70;;;18.70;99.90;;;;;;5083126;28;20426;-23
2021/06/21 12:22:58;;;;;;;4.03;3.70;;;18.70;99.90;;;;;;5071991;28;20475;-23
2021/06/21 12:25:31;;;;;;;4.13;3.83;;;18.70;99.90;;;;;;5082623;28;20448;-24
2021/06/21 12:28:17;;;;;;;4.17;3.80;;;18.70;99.90;;;;;;5083360;28;20582;-25
2021/06/21 12:30:50;;;;;;;4.20;3.60;;;18.80;99.90;;;;;;5082848;28;20521;-22
2021/06/21 12:33:33;;;;;;;4.37;3.77;;;18.70;99.90;;;;;;5082559;28;20457;-22
2021/06/21 12:36:10;;;;;;;4.77;4.37;;;18.70;99.90;;;;;;5076827;28;20455;-25
2021/06/21 12:38:54;;;;;;;4.93;4.57;;;18.70;99.90;;;;;;5082869;28;20447;-23
2021/06/21 12:41:28;;;;;;;4.80;4.40;;;18.70;99.90;;;;;;5082635;28;20456;-22
2021/06/21 12:44:01;;;;;;;4.63;4.23;;;18.60;99.90;;;;;;5083222;28;20498;-21
2021/06/21 12:46:33;;;;;;;5.57;4.50;;;18.60;99.90;;;;;;5083336;28;20444;-22
2021/06/21 12:49:08;;;;;;;4.00;3.70;;;18.60;99.90;;;;;;5067818;28;20479;-23
2021/06/21 12:54:34;;;;;;;4.77;4.37;;;18.70;99.90;;;;;;5082434;28;20572;-22
2021/06/21 12:57:05;;;;;;;4.13;3.70;;;18.70;99.90;;;;;;5083792;28;20471;-23
2021/06/21 12:59:41;;;;;;;3.93;3.63;;;18.70;99.90;;;;;;5082338;28;20426;-21
2021/06/21 13:02:24;;;;;;;4.77;4.37;;;18.70;99.90;;;;;;5082260;28;20447;-21
2021/06/21 13:05:02;;;;;;;4.40;4.07;;;18.80;99.90;;;;;;5083056;28;20942;-22
2021/06/21 13:07:34;;;;;;;4.43;4.10;;;18.70;99.90;;;;;;5083282;28;20451;-22
2021/06/21 13:10:26;;;;;;;4.23;3.93;;;18.70;99.90;;;;;;5080314;28;20463;-25
2021/06/21 13:13:03;;;;;;;7.20;4.67;;;18.70;99.90;;;;;;5082962;28;20565;-26
2021/06/21 13:15:42;;;;;;;5.27;4.53;;;18.80;99.90;;;;;;5074445;28;20447;-23
2021/06/21 13:18:16;;;;;;;4.63;4.20;;;18.70;99.90;;;;;;5083217;28;20455;-22
2021/06/21 13:20:52;;;;;;;4.57;4.17;;;18.80;99.90;;;;;;5077972;28;20451;-24
2021/06/21 13:23:23;;;;;;;4.30;3.90;;;18.90;99.90;;;;;;5082442;28;20479;-22
2021/06/21 13:25:59;;;;;;;5.03;3.70;;;18.80;99.90;;;;;;5080368;28;20488;-21
2021/06/21 13:28:35;;;;;;;4.50;4.20;;;18.90;99.90;;;;;;5082337;28;20432;-23
2021/06/21 13:31:06;;;;;;;4.43;4.10;;;18.90;99.90;;;;;;5068564;28;20469;-23
2021/06/21 13:33:46;;;;;;;5.20;4.10;;;19.00;99.90;;;;;;5081887;28;20788;-21